Terminal Aerodrome Forecast
Issued by NWS Corpus Christi, TX

Home | Current Version | Previous Version | Text Only | Print | Product List | Glossary On
Versions: 1 2 3 4 5 6 7 8 9 10 11 12 13 14 15 16 17 18 19 20 21
000
FTUS44 KCRP 181700
TAFCRP
TAF
KCRP 181731Z 1818/1918 06012KT P6SM BKN060
     FM182100 12012KT P6SM SCT050
     FM190100 13008KT P6SM BKN250
     FM191000 VRB03KT P6SM SCT015
     FM191500 12012KT P6SM SCT035=

USA.gov is the U.S. government's official web portal to all federal, state and local government web resources and services.